createdAt,value
2018-01-03T00:01:21.522Z,2.57
2018-01-03T00:03:49.031Z,1.60
2018-01-03T00:06:16.508Z,0.77
2018-01-03T00:08:43.987Z,1.33
2018-01-03T00:11:12.259Z,2.33
2018-01-03T00:13:39.836Z,1.57
2018-01-03T00:16:07.307Z,1.60
2018-01-03T00:18:34.875Z,1.07
2018-01-03T00:21:02.443Z,0.83
2018-01-03T00:23:29.914Z,1.33
2018-01-03T00:25:57.394Z,1.30
2018-01-03T00:28:25.677Z,1.33
2018-01-03T00:30:53.250Z,1.03
2018-01-03T00:33:20.719Z,1.43
2018-01-03T00:35:48.203Z,2.10
2018-01-03T00:38:16.442Z,1.03
2018-01-03T00:40:43.911Z,2.63
2018-01-03T00:43:11.411Z,1.27
2018-01-03T00:45:38.887Z,1.37
2018-01-03T00:48:06.371Z,0.63
2018-01-03T00:50:34.609Z,2.07
2018-01-03T00:53:02.107Z,1.57
2018-01-03T00:55:29.579Z,0.60
2018-01-03T00:57:57.047Z,2.00
2018-01-03T01:00:24.526Z,1.30
2018-01-03T01:02:51.995Z,0.97
2018-01-03T01:05:19.479Z,1.87
2018-01-03T01:07:47.710Z,0.93
2018-01-03T01:10:15.195Z,1.53
2018-01-03T01:12:42.791Z,1.17
2018-01-03T01:15:10.358Z,1.37
2018-01-03T01:17:37.843Z,1.10
2018-01-03T01:20:06.127Z,0.60
2018-01-03T01:22:33.614Z,0.60
2018-01-03T01:25:01.847Z,1.37
2018-01-03T01:27:29.335Z,0.50
2018-01-03T01:29:56.818Z,2.13
2018-01-03T01:32:24.390Z,3.40
2018-01-03T01:34:51.878Z,0.97
2018-01-03T01:37:20.115Z,0.50
2018-01-03T01:39:47.603Z,0.50
2018-01-03T01:42:15.087Z,0.90
2018-01-03T01:44:42.658Z,0.50
2018-01-03T01:47:10.131Z,1.37
2018-01-03T01:49:37.703Z,0.63
2018-01-03T01:52:05.186Z,1.07
2018-01-03T01:54:32.747Z,0.60
2018-01-03T01:57:00.230Z,1.10
2018-01-03T01:59:28.466Z,1.47
2018-01-03T02:01:55.951Z,0.50
2018-01-03T02:04:23.415Z,0.50
2018-01-03T02:06:50.887Z,1.17
2018-01-03T02:09:18.368Z,0.70
2018-01-03T02:11:45.859Z,2.63
2018-01-03T02:14:13.356Z,0.63
2018-01-03T02:16:41.614Z,1.13
2018-01-03T02:19:09.190Z,1.23
2018-01-03T02:21:36.759Z,1.47
2018-01-03T02:24:04.326Z,0.73
2018-01-03T02:26:31.903Z,2.13
2018-01-03T02:28:59.371Z,2.23
2018-01-03T02:31:26.855Z,0.73
2018-01-03T02:33:55.090Z,2.10
2018-01-03T02:36:22.554Z,1.80
2018-01-03T02:38:50.045Z,1.60
2018-01-03T02:41:17.522Z,2.93
2018-01-03T02:43:45.018Z,5.00
2018-01-03T02:46:12.487Z,1.47
2018-01-03T02:48:39.958Z,1.03
2018-01-03T02:51:07.527Z,0.97
2018-01-03T02:53:35.003Z,1.23
2018-01-03T02:56:02.492Z,2.60
2018-01-03T02:58:30.751Z,1.27
2018-01-03T03:00:58.223Z,1.50
2018-01-03T03:03:25.800Z,2.47
2018-01-03T03:05:53.298Z,2.70
2018-01-03T03:08:20.786Z,0.80
2018-01-03T03:10:48.254Z,1.27
2018-01-03T03:13:15.728Z,3.87
2018-01-03T03:15:43.218Z,3.00
2018-01-03T03:18:10.687Z,1.43
2018-01-03T03:20:38.265Z,1.90
2018-01-03T03:23:05.727Z,1.27
2018-01-03T03:25:33.195Z,1.07
2018-01-03T03:28:00.687Z,1.37
2018-01-03T03:30:28.160Z,1.00
2018-01-03T03:32:55.647Z,0.90
2018-01-03T03:35:23.116Z,1.27
2018-01-03T03:37:50.583Z,0.60
2018-01-03T03:40:18.150Z,1.70
2018-01-03T03:42:45.622Z,4.57
2018-01-03T03:45:13.110Z,1.57
2018-01-03T03:47:41.350Z,5.03
2018-01-03T03:50:08.847Z,0.93
2018-01-03T03:52:36.422Z,0.60
2018-01-03T03:55:03.903Z,0.63
2018-01-03T03:57:32.270Z,0.60
2018-01-03T03:59:59.855Z,0.60
2018-01-03T04:02:27.334Z,0.73
2018-01-03T04:04:55.598Z,1.60
2018-01-03T04:07:23.097Z,0.30
2018-01-03T04:09:51.355Z,0.97
2018-01-03T04:12:18.846Z,0.60
2018-01-03T04:14:46.319Z,0.53
2018-01-03T04:17:14.571Z,0.33
2018-01-03T04:19:42.046Z,0.70
2018-01-03T04:22:09.531Z,0.43
2018-01-03T04:24:37.773Z,1.30
2018-01-03T04:27:05.312Z,0.93
2018-01-03T04:29:33.629Z,1.33
2018-01-03T04:32:01.191Z,0.50
2018-01-03T04:34:28.730Z,2.23
2018-01-03T04:36:56.309Z,1.90
2018-01-03T04:39:23.910Z,0.77
2018-01-03T04:41:51.447Z,0.63
2018-01-03T04:44:19.735Z,0.87
2018-01-03T04:46:47.222Z,1.70
2018-01-03T04:49:15.466Z,2.07
2018-01-03T04:51:42.967Z,1.43
2018-01-03T04:54:10.434Z,0.53
2018-01-03T04:56:39.437Z,0.67
2018-01-03T04:59:07.016Z,1.93
2018-01-03T05:01:34.491Z,1.53
2018-01-03T05:04:02.059Z,1.33
2018-01-03T05:06:29.547Z,1.33
2018-01-03T05:08:57.803Z,0.90
2018-01-03T05:11:25.278Z,1.77
2018-01-03T05:13:52.855Z,4.03
2018-01-03T05:16:20.328Z,4.50
2018-01-03T05:18:47.899Z,1.67
2018-01-03T05:21:15.378Z,2.67
2018-01-03T05:23:42.938Z,3.63
2018-01-03T05:26:10.519Z,2.80
2018-01-03T05:28:37.986Z,1.37
2018-01-03T05:31:05.515Z,1.13
2018-01-03T05:33:33.023Z,0.93
2018-01-03T05:36:00.494Z,0.87
2018-01-03T05:38:27.975Z,3.13
2018-01-03T05:40:56.214Z,4.83
2018-01-03T05:43:24.542Z,3.23
2018-01-03T05:45:52.011Z,5.13
2018-01-03T05:48:19.499Z,1.87
2018-01-03T05:50:47.770Z,2.60
2018-01-03T05:53:15.247Z,3.47
2018-01-03T05:55:42.726Z,4.23
2018-01-03T05:58:11.003Z,3.97
2018-01-03T06:00:38.491Z,4.57
2018-01-03T06:03:06.726Z,4.53
2018-01-03T06:05:34.206Z,4.07
2018-01-03T06:08:01.683Z,7.60
2018-01-03T06:10:29.170Z,9.67
2018-01-03T06:12:56.650Z,4.30
2018-01-03T06:15:24.899Z,3.93
2018-01-03T06:17:53.213Z,13.00
2018-01-03T06:20:21.471Z,10.67
2018-01-03T06:22:48.975Z,13.17
2018-01-03T06:25:16.473Z,5.40
2018-01-03T06:27:44.784Z,8.10
2018-01-03T06:30:12.307Z,11.30
2018-01-03T06:32:39.791Z,15.53
2018-01-03T06:35:08.070Z,46.23
2018-01-03T06:37:35.559Z,7.77
2018-01-03T06:40:03.826Z,10.03
2018-01-03T06:42:31.399Z,9.73
2018-01-03T06:44:58.970Z,9.37
2018-01-03T06:47:26.451Z,8.57
2018-01-03T06:49:54.727Z,8.97
2018-01-03T06:52:22.202Z,10.40
2018-01-03T06:54:49.690Z,9.33
2018-01-03T06:57:17.935Z,12.00
2018-01-03T06:59:45.423Z,13.37
2018-01-03T07:02:13.719Z,13.90
2018-01-03T07:04:41.286Z,18.97
2018-01-03T07:07:08.774Z,15.20
2018-01-03T07:09:36.255Z,11.07
2018-01-03T07:12:03.759Z,11.17
2018-01-03T07:14:32.002Z,12.63
2018-01-03T07:16:59.500Z,10.13
2018-01-03T07:19:27.007Z,11.27
2018-01-03T07:21:54.480Z,10.40
2018-01-03T07:24:22.010Z,8.77
2018-01-03T07:26:49.582Z,16.97
2018-01-03T07:29:17.088Z,13.73
2018-01-03T07:31:44.567Z,10.30
2018-01-03T07:34:12.044Z,13.77
2018-01-03T07:36:39.552Z,10.90
2018-01-03T07:39:07.031Z,11.80
2018-01-03T07:41:34.548Z,9.03
2018-01-03T07:44:02.091Z,15.70
2018-01-03T07:46:30.358Z,11.73
2018-01-03T07:48:57.839Z,11.27
2018-01-03T07:51:25.416Z,7.97
2018-01-03T07:53:52.984Z,44.13
2018-01-03T07:56:20.550Z,13.93
2018-01-03T07:58:48.042Z,10.13
2018-01-03T08:01:16.287Z,15.80
2018-01-03T08:03:43.787Z,9.90
2018-01-03T08:06:11.259Z,5.63
2018-01-03T08:08:38.826Z,7.33
2018-01-03T08:11:06.315Z,7.80
2018-01-03T08:13:34.550Z,8.10
2018-01-03T08:16:02.798Z,6.30
2018-01-03T08:18:30.275Z,7.57
2018-01-03T19:12:18.559Z,75.37
2018-01-03T19:14:46.154Z,28.97
2018-01-03T19:17:14.407Z,37.27
2018-01-03T19:19:41.898Z,26.90
2018-01-03T19:22:09.388Z,32.23
2018-01-03T19:24:37.694Z,42.17
2018-01-03T19:27:05.203Z,33.63
2018-01-03T19:29:32.715Z,36.80
2018-01-03T19:32:00.156Z,31.93
2018-01-03T19:34:27.651Z,39.50
2018-01-03T19:36:55.894Z,38.03
2018-01-03T19:39:23.378Z,40.83
2018-01-03T19:41:50.854Z,32.73
2018-01-03T19:44:18.442Z,36.07
2018-01-03T19:46:46.025Z,28.50
2018-01-03T19:49:13.511Z,30.50
2018-01-03T19:51:41.755Z,25.70
2018-01-03T19:54:09.227Z,33.73
2018-01-03T19:56:36.814Z,35.80
2018-01-03T19:59:04.397Z,29.23
2018-01-03T20:01:32.655Z,23.37
2018-01-03T20:04:00.127Z,29.90
2018-01-03T20:06:27.611Z,31.17
2018-01-03T20:08:55.096Z,32.77
2018-01-03T20:11:23.355Z,29.37
2018-01-03T20:13:50.830Z,27.37
2018-01-03T20:16:18.314Z,32.13
2018-01-03T20:18:45.810Z,32.77
2018-01-03T20:21:14.074Z,69.43
2018-01-03T20:23:41.562Z,23.80
2018-01-03T20:26:09.805Z,22.63
2018-01-03T20:28:37.419Z,22.37
2018-01-03T20:31:05.672Z,29.80
2018-01-03T20:33:33.146Z,30.37
2018-01-03T20:36:00.646Z,28.03
2018-01-03T20:38:28.887Z,31.27
2018-01-03T20:40:56.399Z,33.30
2018-01-03T20:43:23.874Z,27.20
2018-01-03T20:45:51.442Z,42.17
2018-01-03T20:48:18.919Z,37.33
2018-01-03T20:50:47.158Z,30.53
2018-01-03T20:53:14.648Z,26.83
2018-01-03T20:55:42.118Z,25.57
2018-01-03T20:58:09.602Z,23.40
2018-01-03T21:00:37.079Z,21.23
2018-01-03T21:03:05.356Z,24.10
2018-01-03T21:05:32.939Z,33.17
2018-01-03T21:08:00.419Z,29.70
2018-01-03T21:10:28.675Z,30.17
2018-01-03T21:12:56.151Z,27.33
2018-01-03T21:15:23.639Z,25.80
2018-01-03T21:17:51.211Z,29.83
2018-01-03T21:20:18.713Z,34.30
2018-01-03T21:22:46.260Z,52.17
2018-01-03T21:25:14.499Z,30.37
2018-01-03T21:27:42.011Z,35.73
2018-01-03T21:30:09.583Z,41.00
2018-01-03T21:32:37.070Z,27.80
2018-01-03T21:35:05.311Z,39.83
2018-01-03T21:37:32.811Z,33.50
2018-01-03T21:40:00.284Z,36.90
2018-01-03T21:42:27.769Z,31.90
2018-01-03T21:44:56.019Z,28.53
2018-01-03T21:47:23.515Z,30.77
2018-01-03T21:49:51.003Z,41.77
2018-01-03T21:52:19.243Z,33.33
2018-01-03T21:54:46.842Z,33.10
2018-01-03T21:57:15.956Z,39.47
2018-01-03T21:59:43.678Z,34.37
2018-01-03T22:02:11.287Z,35.30
2018-01-03T22:04:38.763Z,26.57
2018-01-03T22:07:06.259Z,27.93
2018-01-03T22:09:34.525Z,28.90
2018-01-03T22:12:02.111Z,31.43
2018-01-03T22:14:29.588Z,28.87
2018-01-03T22:16:57.831Z,31.90
2018-01-03T22:19:25.343Z,27.37
2018-01-03T22:21:52.814Z,28.47
2018-01-03T22:24:20.370Z,25.50
2018-01-03T22:26:47.843Z,34.33
2018-01-03T22:29:17.018Z,32.30
2018-01-03T22:31:44.490Z,25.63
2018-01-03T22:34:11.974Z,28.53
2018-01-03T22:36:39.475Z,38.27
2018-01-03T22:39:07.807Z,25.20
2018-01-03T22:41:35.291Z,27.97
2018-01-03T22:44:02.843Z,35.00
2018-01-03T22:46:30.343Z,33.20
2018-01-03T22:48:57.851Z,33.33
2018-01-03T22:51:25.320Z,29.97
2018-01-03T22:53:52.811Z,32.90
2018-01-03T22:56:21.051Z,28.40
2018-01-03T22:58:48.554Z,30.60
2018-01-03T23:01:16.131Z,31.03
2018-01-03T23:03:43.624Z,30.23
2018-01-03T23:06:11.162Z,29.57
2018-01-03T23:08:38.634Z,33.27
2018-01-03T23:11:06.119Z,37.40
2018-01-03T23:13:34.399Z,30.67
2018-01-03T23:16:01.888Z,31.20
2018-01-03T23:18:30.151Z,39.70
2018-01-03T23:20:58.399Z,29.90
2018-01-03T23:23:25.915Z,23.20
2018-01-03T23:25:53.396Z,27.20
2018-01-03T23:28:21.659Z,25.33
2018-01-03T23:30:49.247Z,32.77
2018-01-03T23:33:16.720Z,40.60
2018-01-03T23:35:44.979Z,31.43
2018-01-03T23:38:12.489Z,29.50
2018-01-03T23:40:40.752Z,29.77
2018-01-03T23:43:08.227Z,36.37
2018-01-03T23:45:35.815Z,35.53
2018-01-03T23:48:04.090Z,33.73
2018-01-03T23:50:31.580Z,35.33
2018-01-03T23:52:59.842Z,32.50
2018-01-03T23:55:27.320Z,26.73
2018-01-03T23:57:54.799Z,32.47
